AirNav   Everest Fuels
 
 1068 users online  

1FL1 America's Chopper Pilots Heliport
Kissimmee, Florida, USA

GOING TO KISSIMMEE?


FAA INFORMATION EFFECTIVE 05 DECEMBER 2019

Location

FAA Identifier: 1FL1
Lat/Long: 28-18-43.7100N 081-27-57.3700W
28-18.728500N 081-27.956167W
28.3121417,-81.4659361
(estimated)
Elevation: 75 ft. / 23 m (estimated)
Variation: 04W (1995)
From city: 1 mile E of KISSIMMEE, FL
Time zone: UTC -5 (UTC -4 during Daylight Saving Time)
Zip code: 34746

Heliport Operations

Heliport use: Private use. Permission required prior to landing
Activation date: 10/1999
Control tower: no
ARTCC: JACKSONVILLE CENTER
FSS: SAINT PETERSBURG FLIGHT SERVICE STATION
Attendance: 0900-2000
Wind indicator: yes
Segmented circle: no

Heliport Communications

WX AWOS-3PT at ISM (2.0 nm SE): 128.775 (407-847-0533)
WX ASOS at MCO (11 nm NE): PHONE 407-855-5235
WX ASOS at ORL (16 nm NE): PHONE 407-658-6753

Nearby radio navigation aids

VOR radial/distance  VOR name  Freq  Var
ORLr207/15.5ORLANDO VORTAC112.2000E
LALr055/35.0LAKELAND VORTAC116.0001E

Heliport Services

Runway Information

Helipad H1

Dimensions: 20 x 20 ft. / 6 x 6 m
Surface: wood
Latitude: 28-18.728500N
Longitude: 081-27.956167W
Elevation: 75.0 ft.
Traffic pattern: leftleft

Heliport Ownership and Management from official FAA records

Ownership: Privately-owned
Owner: RICHARD BRONSON
4601 W. IRLO BRONSON MEM HWY
KISSIMMEE, FL 34746
Phone 813-936-2677
Manager: RICHARD BRONSON
4601 W. IRLO BRONSON MEM HWY
KISSIMMEE, FL 34746
Phone 813-936-2677

Heliport Operational Statistics

Aircraft based on the field: 1
Helicopters: 1
    

Additional Remarks

FOR CD CTC JACKSONVILLE ARTCC AT 904-845-1592.

Instrument Procedures

There are no published instrument procedures at 1FL1.

Some nearby airports with instrument procedures:

KISM - Kissimmee Gateway Airport (2 nm SE)
KMCO - Orlando International Airport (11 nm NE)
KORL - Executive Airport (16 nm NE)
KGIF - Winter Haven Regional Airport (21 nm SW)
X04 - Orlando Apopka Airport (24 nm N)
 
Loc | Ops | Rwys | IFR | FBO | Links
Com | Nav | Svcs | Stats | Notes


 
Area around 1FL1 (America's Chopper Pilots Heliport)
 
Road maps at: MapQuest Bing Google
 
Aerial photo
No photo
 
Sectional chart

 
Airport distance calculator
Flying to America's Chopper Pilots Heliport? Find the distance to fly.

From to 1FL1

Sunrise and sunset
Times for 07-Dec-2019
 Local
(UTC-5)
 Zulu
(UTC)
Morning civil twilight06:4011:40
Sunrise07:0612:06
Sunset17:2922:29
Evening civil twilight17:5422:54

Current date and time
Zulu (UTC)  08-Dec-2019 02:19:48
Local (UTC-5)  07-Dec-2019 21:19:48
 
METAR
KISM 
2nm SE 
080156Z 04006KT 10SM OVC100 20/12 A3019 RMK AO2 SLP224 T02000122
KMCO 
9nm NE 
080153Z 02009KT 10SM SCT090 BKN110 OVC250 20/12 A3018 RMK AO2 SLP218 T02000117
KORL 
16nm NE 
080153Z 02006KT 10SM OVC100 20/12 A3018 RMK AO2 SLP225 T02000122
TAF
KISM 
2nm SE 
071739Z 0718/0818 04006KT P6SM FEW040 SCT100 SCT250 FM080000 02005KT P6SM SCT050 BKN100 FM081500 08007KT P6SM SCT035 BKN090
KMCO 
9nm NE 
072051Z 0721/0824 04006KT P6SM SCT100 SCT250 FM080000 02005KT P6SM SCT070 BKN100 FM081500 08007KT P6SM SCT035 BKN090
NOTAMs
Click for the latest NOTAMs
NOTAMs are issued by the DoD/FAA and will open in a separate window not controlled by AirNav.

 

 
 

Would you like to see your business listed on this page?

 If your business provides an interesting product or service to pilots, flight crews, aircraft, or users of the America's Chopper Pilots Heliport, you should consider listing it here.  To start the listing process, click on the button below
 
Add a business
 

Other Pages about America's Chopper Pilots Heliport

Update a link
 
Copyright © AirNav, LLC. All rights reserved. Privacy Policy  Contact